sensor_id;sensor_type;location;lat;lon;timestamp;pressure;altitude;pressure_sealevel;temperature;humidity
67099;BME280;54288;53.046;5.668;2023-12-20T04:44:16;101256.31;;;8.88;100.00
67099;BME280;54288;53.046;5.668;2023-12-20T05:00:25;101247.56;;;8.97;100.00
67099;BME280;54288;53.046;5.668;2023-12-20T05:19:36;101253.56;;;9.08;100.00
67099;BME280;54288;53.046;5.668;2023-12-20T05:49:45;101233.44;;;9.20;100.00
67099;BME280;54288;53.046;5.668;2023-12-20T06:07:14;101205.59;;;9.19;100.00
67099;BME280;54288;53.046;5.668;2023-12-20T06:16:46;101209.03;;;9.24;100.00
67099;BME280;54288;53.046;5.668;2023-12-20T06:19:31;101217.72;;;9.26;100.00
67099;BME280;54288;53.046;5.668;2023-12-20T06:25:07;101191.63;;;9.22;100.00
67099;BME280;54288;53.046;5.668;2023-12-20T06:27:49;101202.94;;;9.22;100.00
67099;BME280;54288;53.046;5.668;2023-12-20T06:30:45;101209.88;;;9.25;100.00
67099;BME280;54288;53.046;5.668;2023-12-20T06:33:35;101215.09;;;9.23;100.00
67099;BME280;54288;53.046;5.668;2023-12-20T06:36:04;101216.81;;;9.26;100.00
67099;BME280;54288;53.046;5.668;2023-12-20T06:39:10;101198.53;;;9.26;100.00
67099;BME280;54288;53.046;5.668;2023-12-20T06:42:20;101200.25;;;9.28;100.00
67099;BME280;54288;53.046;5.668;2023-12-20T06:45:12;101191.53;;;9.29;100.00
67099;BME280;54288;53.046;5.668;2023-12-20T06:47:45;101182.84;;;9.27;100.00
67099;BME280;54288;53.046;5.668;2023-12-20T06:53:29;101211.53;;;9.35;100.00
67099;BME280;54288;53.046;5.668;2023-12-20T06:56:37;101186.28;;;9.32;100.00
67099;BME280;54288;53.046;5.668;2023-12-20T07:04:45;101178.50;;;9.28;100.00
67099;BME280;54288;53.046;5.668;2023-12-20T07:07:30;101176.75;;;9.27;100.00
67099;BME280;54288;53.046;5.668;2023-12-20T07:10:21;101180.25;;;9.26;100.00
67099;BME280;54288;53.046;5.668;2023-12-20T07:12:57;101181.06;;;9.29;100.00
67099;BME280;54288;53.046;5.668;2023-12-20T07:15:52;101176.75;;;9.28;100.00
67099;BME280;54288;53.046;5.668;2023-12-20T07:24:05;101180.25;;;9.27;100.00
67099;BME280;54288;53.046;5.668;2023-12-20T07:29:22;101195.91;;;9.27;100.00
67099;BME280;54288;53.046;5.668;2023-12-20T07:32:17;101195.94;;;9.26;100.00
67099;BME280;54288;53.046;5.668;2023-12-20T07:35:11;101186.34;;;9.28;100.00
67099;BME280;54288;53.046;5.668;2023-12-20T07:37:48;101207.19;;;9.32;100.00
67099;BME280;54288;53.046;5.668;2023-12-20T07:41:01;101207.25;;;9.28;100.00
67099;BME280;54288;53.046;5.668;2023-12-20T07:43:28;101208.09;;;9.27;100.00
67099;BME280;54288;53.046;5.668;2023-12-20T07:46:10;101204.59;;;9.29;100.00
67099;BME280;54288;53.046;5.668;2023-12-20T07:48:41;101209.88;;;9.28;100.00
67099;BME280;54288;53.046;5.668;2023-12-20T07:51:26;101209.81;;;9.29;100.00
67099;BME280;54288;53.046;5.668;2023-12-20T08:26:21;101193.34;;;9.24;100.00
67099;BME280;54288;53.046;5.668;2023-12-20T08:29:39;101195.91;;;9.27;100.00
67099;BME280;54288;53.046;5.668;2023-12-20T08:32:15;101206.38;;;9.27;100.00
67099;BME280;54288;53.046;5.668;2023-12-20T08:35:12;101202.84;;;9.33;100.00
67099;BME280;54288;53.046;5.668;2023-12-20T08:40:40;101217.59;;;9.35;100.00
67099;BME280;54288;53.046;5.668;2023-12-20T08:44:10;101229.75;;;9.41;100.00
67099;BME280;54288;53.046;5.668;2023-12-20T08:47:22;101228.88;;;9.42;100.00
67099;BME280;54288;53.046;5.668;2023-12-20T08:50:07;101224.47;;;9.48;100.00
67099;BME280;54288;53.046;5.668;2023-12-20T08:53:51;101210.47;;;9.52;100.00
67099;BME280;54288;53.046;5.668;2023-12-20T08:56:50;101210.44;;;9.57;100.00
67099;BME280;54288;53.046;5.668;2023-12-20T09:21:20;101257.03;;;9.13;100.00
67099;BME280;54288;53.046;5.668;2023-12-20T09:47:55;101314.75;;;8.72;100.00
67099;BME280;54288;53.046;5.668;2023-12-20T10:43:19;101293.63;;;9.08;100.00
67099;BME280;54288;53.046;5.668;2023-12-20T10:45:46;101288.38;;;9.11;100.00
67099;BME280;54288;53.046;5.668;2023-12-20T10:48:12;101284.03;;;9.10;100.00
67099;BME280;54288;53.046;5.668;2023-12-20T10:50:41;101279.66;;;9.12;100.00
67099;BME280;54288;53.046;5.668;2023-12-20T10:53:07;101284.88;;;9.17;100.00
67099;BME280;54288;53.046;5.668;2023-12-20T10:55:34;101279.59;;;9.18;100.00
67099;BME280;54288;53.046;5.668;2023-12-20T10:58:04;101276.97;;;9.21;100.00
67099;BME280;54288;53.046;5.668;2023-12-20T11:01:01;101269.13;;;9.23;100.00
67099;BME280;54288;53.046;5.668;2023-12-20T11:03:35;101263.03;;;9.22;100.00
67099;BME280;54288;53.046;5.668;2023-12-20T11:09:28;101244.63;;;9.36;100.00
67099;BME280;54288;53.046;5.668;2023-12-20T11:12:37;101235.09;;;9.30;100.00
67099;BME280;54288;53.046;5.668;2023-12-20T11:15:10;101239.47;;;9.27;100.00
67099;BME280;54288;53.046;5.668;2023-12-20T11:17:44;101235.06;;;9.32;100.00
67099;BME280;54288;53.046;5.668;2023-12-20T11:20:57;101235.91;;;9.37;100.00
67099;BME280;54288;53.046;5.668;2023-12-20T11:23:58;101239.34;;;9.40;100.00
67099;BME280;54288;53.046;5.668;2023-12-20T11:26:31;101242.84;;;9.41;100.00
67099;BME280;54288;53.046;5.668;2023-12-20T11:29:29;101243.69;;;9.43;100.00
67099;BME280;54288;53.046;5.668;2023-12-20T11:37:44;101239.34;;;9.42;100.00
67099;BME280;54288;53.046;5.668;2023-12-20T11:41:05;101237.66;;;9.35;100.00
67099;BME280;54288;53.046;5.668;2023-12-20T11:43:40;101239.44;;;9.31;100.00
67099;BME280;54288;53.046;5.668;2023-12-20T11:46:28;101225.50;;;9.31;100.00
67099;BME280;54288;53.046;5.668;2023-12-20T11:49:06;101209.88;;;9.28;100.00
67099;BME280;54288;53.046;5.668;2023-12-20T11:51:57;101210.78;;;9.22;100.00
67099;BME280;54288;53.046;5.668;2023-12-20T11:54:30;101211.66;;;9.20;100.00
67099;BME280;54288;53.046;5.668;2023-12-20T11:57:03;101223.88;;;9.19;100.00
67099;BME280;54288;53.046;5.668;2023-12-20T11:59:42;101226.50;;;9.19;100.00
67099;BME280;54288;53.046;5.668;2023-12-20T12:02:26;101231.72;;;9.16;100.00
67099;BME280;54288;53.046;5.668;2023-12-20T12:04:56;101230.06;;;9.09;100.00
67099;BME280;54288;53.046;5.668;2023-12-20T12:07:28;101227.44;;;9.09;100.00
67099;BME280;54288;53.046;5.668;2023-12-20T12:12:43;101221.38;;;9.07;100.00
67099;BME280;54288;53.046;5.668;2023-12-20T12:15:11;101211.78;;;9.08;100.00
67099;BME280;54288;53.046;5.668;2023-12-20T12:17:58;101200.47;;;9.07;100.00
67099;BME280;54288;53.046;5.668;2023-12-20T12:24:24;101195.25;;;9.06;100.00
67099;BME280;54288;53.046;5.668;2023-12-20T12:26:57;101193.50;;;9.06;100.00
67099;BME280;54288;53.046;5.668;2023-12-20T12:30:31;101191.81;;;8.98;100.00
67099;BME280;54288;53.046;5.668;2023-12-20T12:33:44;101174.53;;;8.88;100.00
67099;BME280;54288;53.046;5.668;2023-12-20T12:36:37;101188.41;;;8.90;100.00
67099;BME280;54288;53.046;5.668;2023-12-20T12:39:33;101184.09;;;8.86;100.00
67099;BME280;54288;53.046;5.668;2023-12-20T12:56:17;101178.06;;;8.79;100.00
67099;BME280;54288;53.046;5.668;2023-12-20T12:59:40;101172.81;;;8.84;100.00
67099;BME280;54288;53.046;5.668;2023-12-20T14:15:22;101074.88;;;9.25;100.00
67099;BME280;54288;53.046;5.668;2023-12-20T14:21:47;101087.88;;;9.30;100.00
67099;BME280;54288;53.046;5.668;2023-12-20T14:24:31;101076.59;;;9.26;100.00
67099;BME280;54288;53.046;5.668;2023-12-20T14:27:28;101073.09;;;9.27;100.00
67099;BME280;54288;53.046;5.668;2023-12-20T14:36:51;101094.81;;;9.34;100.00
67099;BME280;54288;53.046;5.668;2023-12-20T14:44:22;101075.63;;;9.36;100.00
67099;BME280;54288;53.046;5.668;2023-12-20T14:47:51;101064.28;;;9.34;100.00
67099;BME280;54288;53.046;5.668;2023-12-20T14:51:36;101059.06;;;9.34;100.00
67099;BME280;54288;53.046;5.668;2023-12-20T15:58:23;100989.25;;;9.44;100.00
67099;BME280;54288;53.046;5.668;2023-12-20T23:58:21;100463.94;;;10.82;100.00
